createdAt,value
2022-12-09T00:01:29.822Z,17.60
2022-12-09T00:03:58.141Z,17.63
2022-12-09T00:06:28.104Z,16.77
2022-12-09T00:08:57.620Z,16.10
2022-12-09T00:11:26.614Z,21.10
2022-12-09T00:13:57.808Z,16.90
2022-12-09T00:16:27.651Z,15.40
2022-12-09T00:18:56.091Z,14.70
2022-12-09T00:21:27.034Z,14.67
2022-12-09T00:23:57.161Z,22.37
2022-12-09T00:26:26.446Z,25.63
2022-12-09T00:28:56.143Z,25.87
2022-12-09T00:31:26.031Z,24.30
2022-12-09T00:33:58.364Z,15.93
2022-12-09T00:36:27.352Z,16.87
2022-12-09T00:38:57.903Z,14.73
2022-12-09T00:41:26.468Z,13.10
2022-12-09T00:43:54.957Z,14.60
2022-12-09T00:46:23.264Z,15.80
2022-12-09T00:48:51.608Z,15.27
2022-12-09T00:51:22.520Z,14.10
2022-12-09T00:53:54.674Z,15.97
2022-12-09T00:56:23.369Z,16.63
2022-12-09T00:58:51.549Z,14.57
2022-12-09T01:01:20.235Z,14.27
2022-12-09T01:03:48.860Z,15.50
2022-12-09T01:06:21.626Z,14.90
2022-12-09T01:08:49.785Z,16.03
2022-12-09T01:11:20.568Z,16.07
2022-12-09T01:13:50.850Z,15.13
2022-12-09T01:16:21.243Z,14.47
2022-12-09T01:18:50.750Z,14.30
2022-12-09T01:21:20.618Z,13.03
2022-12-09T01:23:48.699Z,12.80
2022-12-09T01:26:17.091Z,13.70
2022-12-09T01:28:45.503Z,13.53
2022-12-09T01:31:15.764Z,12.80
2022-12-09T01:33:44.856Z,11.90
2022-12-09T01:36:16.874Z,11.87
2022-12-09T01:38:47.244Z,11.90
2022-12-09T01:41:16.112Z,13.67
2022-12-09T01:43:44.817Z,13.00
2022-12-09T01:46:13.133Z,10.60
2022-12-09T01:48:44.749Z,10.70
2022-12-09T01:51:18.411Z,11.97
2022-12-09T01:53:50.871Z,11.70
2022-12-09T01:56:26.261Z,11.03
2022-12-09T01:58:55.537Z,11.83
2022-12-09T02:01:24.515Z,11.50
2022-12-09T02:03:56.906Z,10.03
2022-12-09T02:06:26.848Z,10.20
2022-12-09T02:08:57.854Z,11.47
2022-12-09T02:11:40.072Z,10.50
2022-12-09T02:14:16.566Z,11.03
2022-12-09T02:16:57.242Z,10.97
2022-12-09T02:19:40.563Z,11.17
2022-12-09T02:22:12.689Z,10.93
2022-12-09T02:24:47.165Z,10.80
2022-12-09T02:27:19.550Z,10.20
2022-12-09T02:30:13.212Z,10.33
2022-12-09T02:33:13.364Z,10.27
2022-12-09T02:35:49.264Z,10.93
2022-12-09T02:38:23.967Z,10.50
2022-12-09T02:40:56.337Z,9.93
2022-12-09T02:43:27.441Z,10.17
2022-12-09T02:45:58.685Z,10.70
2022-12-09T02:48:30.809Z,10.60
2022-12-09T02:51:02.575Z,10.00
2022-12-09T02:53:31.706Z,12.07
2022-12-09T02:56:01.109Z,10.87
2022-12-09T02:58:33.094Z,11.97
2022-12-09T03:01:02.864Z,9.30
2022-12-09T03:03:34.337Z,10.90
2022-12-09T03:06:09.543Z,10.97
2022-12-09T03:08:47.638Z,11.07
2022-12-09T03:11:18.745Z,10.20
2022-12-09T03:13:56.656Z,10.10
2022-12-09T03:16:36.028Z,9.50
2022-12-09T03:19:09.591Z,12.10
2022-12-09T03:21:43.519Z,10.60
2022-12-09T03:24:14.853Z,10.60
2022-12-09T03:26:44.377Z,10.77
2022-12-09T03:29:17.695Z,11.30
2022-12-09T03:31:47.861Z,11.00
2022-12-09T03:34:18.904Z,9.77
2022-12-09T03:36:51.529Z,10.07
2022-12-09T03:39:25.242Z,10.07
2022-12-09T03:41:57.378Z,11.87
2022-12-09T03:44:31.314Z,10.10
2022-12-09T03:47:00.150Z,10.30
2022-12-09T03:49:28.492Z,9.33
2022-12-09T03:52:03.066Z,10.67
2022-12-09T03:54:36.854Z,11.57
2022-12-09T03:57:05.808Z,10.60
2022-12-09T03:59:36.634Z,11.33
2022-12-09T04:02:06.998Z,9.60
2022-12-09T04:04:39.457Z,9.67
2022-12-09T04:07:10.313Z,10.20
2022-12-09T04:09:42.573Z,11.40
2022-12-09T04:12:11.245Z,10.73
2022-12-09T04:14:39.318Z,11.13
2022-12-09T04:17:07.569Z,10.30
2022-12-09T04:19:35.939Z,11.27
2022-12-09T04:22:04.259Z,11.27
2022-12-09T04:24:33.759Z,11.47
2022-12-09T04:27:01.853Z,10.97
2022-12-09T04:29:30.226Z,11.30
2022-12-09T04:31:58.813Z,11.10
2022-12-09T04:34:27.063Z,12.70
2022-12-09T04:36:55.084Z,11.33
2022-12-09T04:39:23.443Z,13.37
2022-12-09T04:41:53.116Z,13.03
2022-12-09T04:44:21.485Z,12.60
2022-12-09T04:46:50.251Z,14.37
2022-12-09T04:49:18.597Z,12.10
2022-12-09T04:51:47.033Z,13.00
2022-12-09T04:54:15.486Z,12.70
2022-12-09T04:56:43.904Z,13.47
2022-12-09T04:59:13.477Z,13.27
2022-12-09T05:01:42.263Z,12.60
2022-12-09T05:04:11.290Z,12.90
2022-12-09T05:06:39.616Z,12.10
2022-12-09T05:09:12.370Z,13.70
2022-12-09T05:11:41.076Z,13.83
2022-12-09T05:14:09.569Z,14.57
2022-12-09T05:16:39.279Z,14.40
2022-12-09T05:19:07.847Z,12.17
2022-12-09T05:21:36.314Z,14.13
2022-12-09T05:24:05.070Z,12.63
2022-12-09T05:26:33.387Z,12.33
2022-12-09T05:29:01.826Z,11.23
2022-12-09T05:31:29.941Z,11.83
2022-12-09T05:34:00.557Z,11.80
2022-12-09T05:36:29.070Z,11.97
2022-12-09T05:38:57.903Z,12.20
2022-12-09T05:41:26.245Z,10.90
2022-12-09T05:43:54.836Z,12.70
2022-12-09T05:46:23.455Z,11.87
2022-12-09T05:48:51.835Z,12.67
2022-12-09T05:51:25.306Z,14.17
2022-12-09T05:53:54.284Z,16.50
2022-12-09T05:56:25.370Z,15.43
2022-12-09T05:58:55.482Z,12.57
2022-12-09T06:01:24.469Z,12.27
2022-12-09T06:03:55.359Z,11.37
2022-12-09T06:06:30.326Z,11.53
2022-12-09T06:09:00.699Z,12.93
2022-12-09T06:11:30.029Z,12.50
2022-12-09T06:13:58.464Z,11.87
2022-12-09T06:16:27.551Z,11.63
2022-12-09T06:18:56.830Z,13.60
2022-12-09T06:21:26.731Z,14.67
2022-12-09T06:23:55.545Z,12.77
2022-12-09T06:26:26.182Z,12.40
2022-12-09T06:28:56.871Z,13.17
2022-12-09T06:31:25.685Z,13.27
2022-12-09T06:33:56.507Z,14.87
2022-12-09T06:36:28.078Z,14.77
2022-12-09T06:38:57.735Z,17.10
2022-12-09T06:41:26.991Z,16.83
2022-12-09T06:43:57.766Z,15.83
2022-12-09T06:46:26.489Z,15.70
2022-12-09T06:48:56.655Z,16.53
2022-12-09T06:51:27.472Z,13.27
2022-12-09T06:53:56.179Z,15.00
2022-12-09T06:56:25.436Z,15.57
2022-12-09T06:58:53.698Z,15.90
2022-12-09T07:01:25.101Z,20.33
2022-12-09T07:03:55.934Z,17.17
2022-12-09T07:06:30.120Z,15.67
2022-12-09T07:09:01.027Z,17.50
2022-12-09T07:11:30.223Z,15.70
2022-12-09T07:13:58.966Z,15.47
2022-12-09T07:16:27.680Z,15.50
2022-12-09T07:18:56.441Z,16.27
2022-12-09T07:21:26.933Z,16.47
2022-12-09T07:23:55.522Z,14.93
2022-12-09T07:26:23.710Z,17.60
2022-12-09T07:28:52.530Z,15.57
2022-12-09T07:31:22.763Z,17.00
2022-12-09T07:33:52.488Z,16.27
2022-12-09T07:36:22.369Z,17.03
2022-12-09T07:38:56.644Z,15.97
2022-12-09T07:41:25.203Z,15.97
2022-12-09T07:43:53.707Z,16.83
2022-12-09T07:46:24.298Z,17.40
2022-12-09T07:48:52.780Z,16.73
2022-12-09T07:51:21.158Z,18.10
2022-12-09T07:53:50.997Z,18.67
2022-12-09T07:56:20.344Z,19.10
2022-12-09T07:58:51.308Z,19.27
2022-12-09T08:01:21.770Z,21.27
2022-12-09T08:03:51.433Z,20.97
2022-12-09T08:06:22.789Z,21.30
2022-12-09T08:08:52.931Z,21.30
2022-12-09T08:11:24.395Z,22.00
2022-12-09T08:13:53.369Z,24.50
2022-12-09T08:16:23.305Z,22.63
2022-12-09T08:18:52.920Z,20.73
2022-12-09T08:21:23.524Z,24.63
2022-12-09T08:23:54.266Z,22.10
2022-12-09T08:26:24.214Z,21.57
2022-12-09T08:28:53.201Z,23.13
2022-12-09T08:31:23.607Z,22.07
2022-12-09T08:33:53.296Z,24.80
2022-12-09T08:36:24.060Z,22.80
2022-12-09T08:38:54.468Z,22.50
2022-12-09T08:41:35.377Z,22.43
2022-12-09T08:44:05.549Z,20.37
2022-12-09T08:46:35.608Z,22.00
2022-12-09T08:49:05.559Z,23.20
2022-12-09T08:51:34.987Z,24.80
2022-12-09T08:54:05.994Z,22.73
2022-12-09T08:56:35.403Z,23.60
2022-12-09T08:59:04.000Z,24.43
2022-12-09T09:01:34.899Z,23.10
2022-12-09T09:04:07.033Z,24.03
2022-12-09T09:06:36.548Z,23.13
2022-12-09T09:09:07.910Z,22.40
2022-12-09T09:11:36.906Z,25.30
2022-12-09T09:14:07.723Z,24.03
2022-12-09T09:16:36.556Z,25.53
2022-12-09T09:19:06.689Z,23.60
2022-12-09T09:21:35.918Z,24.23
2022-12-09T09:24:10.450Z,21.27
2022-12-09T09:26:41.502Z,20.70
2022-12-09T09:29:11.807Z,21.50
2022-12-09T09:31:40.955Z,20.17
2022-12-09T09:34:09.671Z,24.27
2022-12-09T09:36:38.446Z,23.70
2022-12-09T09:39:06.936Z,24.17
2022-12-09T09:41:46.593Z,21.83
2022-12-09T09:44:22.519Z,22.67
2022-12-09T09:46:53.453Z,21.63
2022-12-09T09:49:33.697Z,20.70
2022-12-09T09:52:07.913Z,23.00
2022-12-09T09:54:37.094Z,22.13
2022-12-09T09:57:14.285Z,20.20
2022-12-09T10:00:08.924Z,22.23
2022-12-09T10:02:59.204Z,18.47
2022-12-09T10:05:32.662Z,20.80
2022-12-09T10:08:19.640Z,21.37
2022-12-09T10:10:57.657Z,22.60
2022-12-09T10:13:44.143Z,21.53
2022-12-09T10:16:17.961Z,20.30
2022-12-09T10:19:08.894Z,21.70
2022-12-09T10:21:42.179Z,19.10
2022-12-09T10:24:21.104Z,19.93
2022-12-09T10:26:59.378Z,20.10
2022-12-09T10:29:42.902Z,18.17
2022-12-09T10:32:17.976Z,19.90
2022-12-09T10:34:47.731Z,19.10
2022-12-09T10:37:29.121Z,21.60
2022-12-09T10:40:05.011Z,19.80
2022-12-09T10:42:56.937Z,17.27
2022-12-09T10:45:35.648Z,19.30
2022-12-09T10:48:33.027Z,17.40
2022-12-09T10:51:05.105Z,19.43
2022-12-09T10:53:36.022Z,21.30
2022-12-09T10:56:05.187Z,18.10
2022-12-09T10:58:33.937Z,19.67
2022-12-09T11:01:07.877Z,20.37
2022-12-09T11:03:39.710Z,18.73
2022-12-09T11:06:20.429Z,18.30
2022-12-09T11:08:55.533Z,18.67
2022-12-09T11:11:42.924Z,17.37
2022-12-09T11:14:24.017Z,17.80
2022-12-09T11:16:56.292Z,18.27
2022-12-09T11:19:34.304Z,16.87
2022-12-09T11:22:24.011Z,17.90
2022-12-09T11:24:56.637Z,16.77
2022-12-09T11:27:28.340Z,18.50
2022-12-09T11:30:14.340Z,18.67
2022-12-09T11:33:04.318Z,19.03
2022-12-09T11:35:39.208Z,19.80
2022-12-09T11:38:18.974Z,18.30
2022-12-09T11:41:04.013Z,19.10
2022-12-09T11:43:34.935Z,19.30
2022-12-09T11:46:16.353Z,17.20
2022-12-09T11:48:52.138Z,19.90
2022-12-09T11:51:24.209Z,20.57
2022-12-09T11:54:01.685Z,18.33
2022-12-09T11:56:31.781Z,19.30
2022-12-09T11:59:02.602Z,19.70
2022-12-09T12:01:39.537Z,17.27
2022-12-09T12:04:11.783Z,18.43
2022-12-09T12:06:47.339Z,18.23
2022-12-09T12:09:22.269Z,17.50
2022-12-09T12:11:59.412Z,18.90
2022-12-09T12:14:30.776Z,17.13
2022-12-09T12:17:08.360Z,18.77
2022-12-09T12:19:40.761Z,18.00
2022-12-09T12:22:33.776Z,19.40
2022-12-09T12:25:25.382Z,17.87
2022-12-09T12:28:14.310Z,17.07
2022-12-09T12:30:49.454Z,17.33
2022-12-09T12:34:16.066Z,19.70
2022-12-09T12:36:45.509Z,18.67
2022-12-09T12:39:24.811Z,18.27
2022-12-09T12:42:01.523Z,20.63
2022-12-09T12:44:58.058Z,18.63
2022-12-09T12:47:31.170Z,19.10
2022-12-09T12:50:25.559Z,17.27
2022-12-09T12:53:03.817Z,20.07
2022-12-09T12:55:48.851Z,18.90
2022-12-09T12:58:36.304Z,19.80
2022-12-09T13:01:09.229Z,18.93
2022-12-09T13:03:44.644Z,16.97
2022-12-09T13:06:17.210Z,17.50
2022-12-09T13:08:52.545Z,18.00
2022-12-09T13:11:26.316Z,17.50
2022-12-09T13:13:57.690Z,15.17
2022-12-09T13:16:30.725Z,18.03
2022-12-09T13:19:09.035Z,17.67
2022-12-09T13:21:37.391Z,20.50
2022-12-09T13:24:18.043Z,20.33
2022-12-09T13:26:54.385Z,19.07
2022-12-09T13:29:33.034Z,17.53
2022-12-09T13:32:09.509Z,17.50
2022-12-09T13:34:40.050Z,21.87
2022-12-09T13:37:33.124Z,21.90
2022-12-09T13:40:03.908Z,19.70
2022-12-09T13:42:56.369Z,19.80
2022-12-09T13:45:34.248Z,20.70
2022-12-09T13:48:10.612Z,20.63
2022-12-09T13:50:43.733Z,20.70
2022-12-09T13:53:27.002Z,21.27
2022-12-09T13:55:58.287Z,21.13
2022-12-09T13:58:55.703Z,19.20
2022-12-09T14:01:29.172Z,21.00
2022-12-09T14:04:07.839Z,20.80
2022-12-09T14:06:48.366Z,19.73
2022-12-09T14:09:26.795Z,21.70
2022-12-09T14:11:57.107Z,18.97
2022-12-09T14:14:57.878Z,22.27
2022-12-09T14:18:04.061Z,21.10
2022-12-09T14:20:37.840Z,21.93
2022-12-09T14:23:18.406Z,21.93
2022-12-09T14:26:05.763Z,22.37
2022-12-09T14:28:54.524Z,21.00
2022-12-09T14:31:46.279Z,18.80
2022-12-09T14:34:31.358Z,22.43
2022-12-09T14:37:10.851Z,20.40
2022-12-09T14:39:48.145Z,21.03
2022-12-09T14:42:28.636Z,22.07
2022-12-09T14:45:10.265Z,21.30
2022-12-09T14:47:42.935Z,22.57
2022-12-09T14:50:16.463Z,21.80
2022-12-09T14:52:57.565Z,21.80
2022-12-09T14:55:27.634Z,20.23
2022-12-09T14:57:59.104Z,21.50
2022-12-09T15:00:35.976Z,24.83
2022-12-09T15:05:58.845Z,23.20
2022-12-09T15:08:34.915Z,22.03
2022-12-09T15:11:09.330Z,21.57
2022-12-09T15:13:39.957Z,22.40
2022-12-09T15:16:11.196Z,21.77
2022-12-09T15:18:41.166Z,22.03
2022-12-09T15:21:09.926Z,23.20
2022-12-09T15:23:40.996Z,23.93
2022-12-09T15:26:24.616Z,23.03
2022-12-09T15:28:55.394Z,26.30
2022-12-09T15:31:27.054Z,22.70
2022-12-09T15:33:57.289Z,24.70
2022-12-09T15:36:29.458Z,22.30
2022-12-09T15:39:00.382Z,21.27
2022-12-09T15:41:52.665Z,21.50
2022-12-09T15:44:24.985Z,20.47
2022-12-09T15:46:57.136Z,20.77
2022-12-09T15:49:29.807Z,20.57
2022-12-09T15:51:58.352Z,21.93
2022-12-09T15:54:30.434Z,52.00
2022-12-09T15:57:01.433Z,56.67
2022-12-09T15:59:32.439Z,34.50
2022-12-09T16:02:02.503Z,51.20
2022-12-09T16:04:35.746Z,27.93
2022-12-09T16:07:07.062Z,23.87
2022-12-09T16:09:35.425Z,22.10
2022-12-09T16:12:03.643Z,21.60
2022-12-09T16:14:43.220Z,23.30
2022-12-09T16:17:21.997Z,24.07
2022-12-09T16:19:50.365Z,28.53
2022-12-09T16:22:24.943Z,28.23
2022-12-09T16:25:14.293Z,25.33
2022-12-09T16:27:48.462Z,26.67
2022-12-09T16:30:18.771Z,25.77
2022-12-09T16:32:49.208Z,22.27
2022-12-09T16:35:23.247Z,23.77
2022-12-09T16:38:21.583Z,23.60
2022-12-09T16:41:04.688Z,22.07
2022-12-09T16:43:33.916Z,25.20
2022-12-09T16:46:23.136Z,24.13
2022-12-09T16:48:52.582Z,22.60
2022-12-09T16:51:26.046Z,23.50
2022-12-09T16:53:56.003Z,27.50
2022-12-09T16:56:26.058Z,26.10
2022-12-09T16:58:54.997Z,25.37
2022-12-09T17:01:26.353Z,25.87
2022-12-09T17:03:59.066Z,25.80
2022-12-09T17:06:27.219Z,25.57
2022-12-09T17:08:55.385Z,24.37
2022-12-09T17:11:23.713Z,26.80
2022-12-09T17:13:52.469Z,27.27
2022-12-09T17:16:22.183Z,26.90
2022-12-09T17:18:51.017Z,26.83
2022-12-09T17:21:20.491Z,31.67
2022-12-09T17:23:48.811Z,29.07
2022-12-09T17:26:20.075Z,25.00
2022-12-09T17:28:49.850Z,31.67
2022-12-09T17:31:20.143Z,113.63
2022-12-09T17:33:48.889Z,34.00
2022-12-09T17:36:18.145Z,27.60
2022-12-09T17:38:48.172Z,27.97
2022-12-09T17:41:20.620Z,33.50
2022-12-09T17:43:48.959Z,28.77
2022-12-09T17:46:17.170Z,26.27
2022-12-09T17:48:45.375Z,25.53
2022-12-09T17:51:17.972Z,26.27
2022-12-09T17:53:47.826Z,31.10
2022-12-09T17:56:17.856Z,26.57
2022-12-09T17:58:46.578Z,23.70
2022-12-09T18:01:16.452Z,24.47
2022-12-09T18:03:56.002Z,34.07
2022-12-09T18:06:25.566Z,26.50
2022-12-09T18:08:55.083Z,32.80
2022-12-09T18:11:23.412Z,28.60
2022-12-09T18:13:51.577Z,25.17
2022-12-09T18:16:20.297Z,28.27
2022-12-09T18:18:48.376Z,26.13
2022-12-09T18:21:16.806Z,25.60
2022-12-09T18:23:44.957Z,25.63
2022-12-09T18:26:16.252Z,25.60
2022-12-09T18:28:45.282Z,24.10
2022-12-09T18:31:15.995Z,24.90
2022-12-09T18:33:44.394Z,23.10
2022-12-09T18:36:16.177Z,23.03
2022-12-09T18:38:45.048Z,25.90
2022-12-09T18:41:16.107Z,22.70
2022-12-09T18:43:46.219Z,25.60
2022-12-09T18:46:17.678Z,26.47
2022-12-09T18:48:47.590Z,25.77
2022-12-09T18:51:16.647Z,26.70
2022-12-09T18:53:45.259Z,36.93
2022-12-09T18:56:15.485Z,28.80
2022-12-09T18:59:05.515Z,28.47
2022-12-09T19:01:33.998Z,28.80
2022-12-09T19:04:04.459Z,27.60
2022-12-09T19:06:34.185Z,29.40
2022-12-09T19:09:03.724Z,30.77
2022-12-09T19:11:34.819Z,27.47
2022-12-09T19:14:03.495Z,27.60
2022-12-09T19:16:31.961Z,27.10
2022-12-09T19:19:05.314Z,30.50
2022-12-09T19:21:37.152Z,27.90
2022-12-09T19:24:05.643Z,28.57
2022-12-09T19:26:37.415Z,26.10
2022-12-09T19:29:08.164Z,26.53
2022-12-09T19:31:38.882Z,25.93
2022-12-09T19:34:09.680Z,26.23
2022-12-09T19:36:37.828Z,26.40
2022-12-09T19:39:08.224Z,26.90
2022-12-09T19:41:38.593Z,26.97
2022-12-09T19:44:07.750Z,28.17
2022-12-09T19:46:36.736Z,29.20
2022-12-09T19:49:05.255Z,29.67
2022-12-09T19:51:33.569Z,30.17
2022-12-09T19:54:02.742Z,28.00
2022-12-09T19:56:31.198Z,27.13
2022-12-09T19:59:01.040Z,28.63
2022-12-09T20:01:31.146Z,23.50
2022-12-09T20:04:13.596Z,25.20
2022-12-09T20:06:47.983Z,27.03
2022-12-09T20:09:24.087Z,22.97
2022-12-09T20:11:52.765Z,24.13
2022-12-09T20:14:22.252Z,22.67
2022-12-09T20:16:50.476Z,23.80
2022-12-09T20:19:19.749Z,28.20
2022-12-09T20:21:48.821Z,26.07
2022-12-09T20:24:16.911Z,26.70
2022-12-09T20:26:45.140Z,27.13
2022-12-09T20:29:15.818Z,27.73
2022-12-09T20:31:45.396Z,30.57
2022-12-09T20:34:15.921Z,29.30
2022-12-09T20:36:45.865Z,27.53
2022-12-09T20:39:17.446Z,26.13
2022-12-09T20:41:45.844Z,27.00
2022-12-09T20:44:15.262Z,26.60
2022-12-09T20:46:48.313Z,25.13
2022-12-09T20:49:16.674Z,27.00
2022-12-09T20:51:46.976Z,24.50
2022-12-09T20:54:15.310Z,26.13
2022-12-09T20:56:43.486Z,24.17
2022-12-09T20:59:13.607Z,25.47
2022-12-09T21:01:43.528Z,27.93
2022-12-09T21:04:12.978Z,29.13
2022-12-09T21:06:42.284Z,25.77
2022-12-09T21:09:13.993Z,26.60
2022-12-09T21:11:42.183Z,28.00
2022-12-09T21:14:10.978Z,27.10
2022-12-09T21:16:41.034Z,28.60
2022-12-09T21:19:12.869Z,27.90
2022-12-09T21:21:46.597Z,27.30
2022-12-09T21:24:16.310Z,31.57
2022-12-09T21:26:46.309Z,28.23
2022-12-09T21:29:15.379Z,29.17
2022-12-09T21:31:44.217Z,27.83
2022-12-09T21:34:12.441Z,25.60
2022-12-09T21:36:43.971Z,25.20
2022-12-09T21:39:14.075Z,26.23
2022-12-09T21:41:42.683Z,26.03
2022-12-09T21:44:15.796Z,25.83
2022-12-09T21:46:43.934Z,25.30
2022-12-09T21:49:12.930Z,25.33
2022-12-09T21:51:41.099Z,25.50
2022-12-09T21:54:10.871Z,26.57
2022-12-09T21:56:39.010Z,27.10
2022-12-09T21:59:08.623Z,25.07
2022-12-09T22:01:39.366Z,27.20
2022-12-09T22:04:10.989Z,28.00
2022-12-09T22:06:39.717Z,27.90
2022-12-09T22:09:11.387Z,28.20
2022-12-09T22:11:40.185Z,28.30
2022-12-09T22:14:10.485Z,27.17
2022-12-09T22:16:41.383Z,29.10
2022-12-09T22:19:13.748Z,29.97
2022-12-09T22:21:41.990Z,25.90
2022-12-09T22:24:12.909Z,28.90
2022-12-09T22:26:43.429Z,28.27
2022-12-09T22:29:14.910Z,25.67
2022-12-09T22:31:43.839Z,27.90
2022-12-09T22:34:14.894Z,26.20
2022-12-09T22:36:55.614Z,30.00
2022-12-09T22:39:25.134Z,28.20
2022-12-09T22:41:54.629Z,29.60
2022-12-09T22:44:22.687Z,27.47
2022-12-09T22:46:50.802Z,26.63
2022-12-09T22:49:19.321Z,28.70
2022-12-09T22:51:48.451Z,31.43
2022-12-09T22:54:16.934Z,27.70
2022-12-09T22:56:46.382Z,26.07
2022-12-09T22:59:15.132Z,26.37
2022-12-09T23:01:45.172Z,26.20
2022-12-09T23:04:14.786Z,28.10
2022-12-09T23:06:42.861Z,25.30
2022-12-09T23:09:20.972Z,26.03
2022-12-09T23:11:51.691Z,24.80
2022-12-09T23:14:19.917Z,26.67
2022-12-09T23:16:48.165Z,27.20
2022-12-09T23:19:16.619Z,25.47
2022-12-09T23:21:44.731Z,24.30
2022-12-09T23:24:18.416Z,25.90
2022-12-09T23:26:52.543Z,26.63
2022-12-09T23:29:20.601Z,27.37
2022-12-09T23:31:48.852Z,26.23
2022-12-09T23:34:17.710Z,26.20
2022-12-09T23:36:46.668Z,25.73
2022-12-09T23:39:16.945Z,28.53
2022-12-09T23:41:46.510Z,23.67
2022-12-09T23:44:17.667Z,25.03
2022-12-09T23:46:46.410Z,23.90
2022-12-09T23:49:14.637Z,23.80
2022-12-09T23:51:44.639Z,23.87
2022-12-09T23:54:14.877Z,24.70
2022-12-09T23:56:48.054Z,23.67
2022-12-09T23:59:19.157Z,24.90
